createdAt,value
2023-05-23T00:02:23.431Z,13.05
2023-05-23T00:05:09.438Z,10.75
2023-05-23T00:07:55.153Z,14.57
2023-05-23T00:10:41.128Z,13.55
2023-05-23T00:13:27.008Z,12.50
2023-05-23T00:16:13.251Z,11.65
2023-05-23T00:18:59.383Z,15.75
2023-05-23T00:21:51.261Z,11.38
2023-05-23T00:24:37.199Z,15.15
2023-05-23T00:27:22.909Z,17.80
2023-05-23T00:30:08.648Z,15.55
2023-05-23T00:32:55.313Z,13.23
2023-05-23T00:35:44.133Z,12.70
2023-05-23T00:38:30.660Z,12.90
2023-05-23T00:41:18.494Z,12.45
2023-05-23T00:44:06.019Z,11.13
2023-05-23T00:46:54.060Z,13.55
2023-05-23T00:49:41.067Z,11.40
2023-05-23T00:52:26.847Z,9.77
2023-05-23T00:55:13.395Z,12.20
2023-05-23T00:57:59.190Z,12.55
2023-05-23T01:00:45.538Z,13.00
2023-05-23T01:03:31.476Z,16.23
2023-05-23T01:06:17.761Z,16.30
2023-05-23T01:09:03.633Z,19.15
2023-05-23T01:12:15.490Z,16.17
2023-05-23T01:15:22.026Z,14.02
2023-05-23T01:18:18.427Z,13.27
2023-05-23T01:21:09.040Z,14.05
2023-05-23T01:24:11.583Z,11.98
2023-05-23T01:27:08.706Z,13.88
2023-05-23T01:29:58.695Z,12.55
2023-05-23T01:32:45.339Z,11.48
2023-05-23T01:35:31.892Z,15.43
2023-05-23T01:38:17.906Z,13.60
2023-05-23T01:41:04.067Z,16.27
2023-05-23T01:43:49.987Z,16.80
2023-05-23T01:46:36.052Z,15.35
2023-05-23T01:49:22.287Z,12.90
2023-05-23T01:52:09.983Z,11.48
2023-05-23T01:54:57.312Z,14.82
2023-05-23T01:57:44.308Z,15.85
2023-05-23T02:00:30.028Z,10.90
2023-05-23T02:03:17.315Z,13.43
2023-05-23T02:06:03.455Z,12.23
2023-05-23T02:08:49.225Z,12.27
2023-05-23T02:11:35.760Z,15.75
2023-05-23T02:14:21.727Z,12.30
2023-05-23T02:17:07.769Z,11.60
2023-05-23T02:19:54.429Z,11.40
2023-05-23T02:22:40.408Z,14.25
2023-05-23T02:25:28.089Z,11.00
2023-05-23T02:28:13.808Z,14.30
2023-05-23T02:30:59.574Z,20.17
2023-05-23T02:33:45.216Z,11.73
2023-05-23T02:36:33.499Z,13.75
2023-05-23T02:39:19.542Z,14.63
2023-05-23T02:42:06.017Z,12.65
2023-05-23T02:44:51.834Z,15.15
2023-05-23T02:47:38.619Z,17.85
2023-05-23T02:50:24.350Z,14.80
2023-05-23T02:53:10.320Z,14.40
2023-05-23T02:55:56.457Z,11.80
2023-05-23T02:58:43.051Z,10.68
2023-05-23T03:01:28.972Z,14.63
2023-05-23T03:04:15.287Z,17.95
2023-05-23T03:07:05.438Z,19.00
2023-05-23T03:09:53.241Z,14.98
2023-05-23T03:12:39.039Z,20.13
2023-05-23T03:15:25.017Z,13.68
2023-05-23T03:18:11.386Z,16.27
2023-05-23T03:20:58.315Z,12.32
2023-05-23T03:23:43.847Z,14.27
2023-05-23T03:26:29.526Z,13.80
2023-05-23T03:29:15.781Z,12.75
2023-05-23T03:32:02.888Z,13.88
2023-05-23T03:34:48.859Z,12.32
2023-05-23T03:37:35.300Z,11.32
2023-05-23T03:40:22.075Z,10.80
2023-05-23T03:43:08.843Z,12.77
2023-05-23T03:45:58.983Z,12.45
2023-05-23T03:48:45.336Z,13.77
2023-05-23T03:51:31.733Z,11.95
2023-05-23T03:54:18.355Z,12.32
2023-05-23T03:57:04.639Z,11.63
2023-05-23T03:59:51.118Z,12.15
2023-05-23T04:02:40.184Z,13.27
2023-05-23T04:05:26.448Z,12.30
2023-05-23T04:08:13.161Z,15.45
2023-05-23T04:11:02.392Z,15.23
2023-05-23T04:13:53.438Z,14.25
2023-05-23T04:16:41.899Z,15.02
2023-05-23T04:19:28.468Z,11.90
2023-05-23T04:22:14.680Z,11.20
2023-05-23T04:25:00.599Z,11.80
2023-05-23T04:27:54.404Z,12.90
2023-05-23T04:30:40.981Z,12.40
2023-05-23T04:33:28.308Z,10.95
2023-05-23T04:36:14.086Z,12.73
2023-05-23T04:39:05.644Z,10.57
2023-05-23T04:41:54.874Z,10.77
2023-05-23T04:45:22.150Z,10.20
2023-05-23T04:48:38.803Z,11.30
2023-05-23T04:51:25.230Z,13.00
2023-05-23T04:54:15.342Z,14.02
2023-05-23T04:57:01.612Z,12.73
2023-05-23T04:59:48.216Z,9.55
2023-05-23T05:02:36.815Z,10.85
2023-05-23T05:05:22.712Z,9.68
2023-05-23T05:08:09.040Z,13.60
2023-05-23T05:10:55.852Z,10.65
2023-05-23T05:13:42.405Z,11.35
2023-05-23T05:16:27.952Z,19.63
2023-05-23T05:19:14.159Z,8.07
2023-05-23T05:22:00.369Z,8.52
2023-05-23T05:24:47.001Z,13.05
2023-05-23T05:27:32.409Z,16.20
2023-05-23T05:30:18.862Z,6.85
2023-05-23T05:33:10.236Z,11.10
2023-05-23T05:35:56.431Z,9.35
2023-05-23T05:38:42.324Z,8.57
2023-05-23T05:41:28.426Z,11.65
2023-05-23T05:44:13.679Z,8.52
2023-05-23T05:46:59.418Z,11.05
2023-05-23T05:49:44.918Z,7.95
2023-05-23T05:52:30.611Z,9.50
2023-05-23T05:55:16.071Z,8.50
2023-05-23T05:58:05.632Z,10.47
2023-05-23T06:01:05.767Z,10.48
2023-05-23T06:03:51.807Z,9.23
2023-05-23T06:06:37.979Z,9.63
2023-05-23T06:09:24.311Z,11.82
2023-05-23T06:12:10.289Z,12.48
2023-05-23T06:14:56.386Z,11.65
2023-05-23T06:17:43.038Z,10.23
2023-05-23T06:20:29.407Z,12.88
2023-05-23T06:23:18.924Z,8.60
2023-05-23T06:26:10.721Z,20.02
2023-05-23T06:28:56.314Z,8.65
2023-05-23T06:31:42.155Z,10.77
2023-05-23T06:34:28.344Z,8.27
2023-05-23T06:37:17.893Z,7.10
2023-05-23T06:40:04.853Z,9.43
2023-05-23T06:42:51.761Z,6.45
2023-05-23T06:46:12.619Z,11.23
2023-05-23T06:49:13.204Z,8.73
2023-05-23T06:52:00.897Z,9.65
2023-05-23T06:54:46.578Z,7.88
2023-05-23T06:57:32.640Z,10.68
2023-05-23T07:00:19.635Z,7.32
2023-05-23T07:03:18.600Z,7.55
2023-05-23T07:06:05.131Z,8.65
2023-05-23T07:08:50.974Z,5.80
2023-05-23T07:11:39.544Z,10.25
2023-05-23T07:14:25.814Z,9.35
2023-05-23T07:17:12.311Z,11.55
2023-05-23T07:19:58.155Z,10.63
2023-05-23T07:22:45.654Z,8.98
2023-05-23T07:25:31.277Z,8.63
2023-05-23T07:28:17.532Z,7.45
2023-05-23T07:31:03.699Z,7.72
2023-05-23T07:33:50.606Z,9.70
2023-05-23T07:36:45.738Z,9.40
2023-05-23T07:39:32.802Z,9.00
2023-05-23T07:42:19.772Z,9.38
2023-05-23T07:45:06.874Z,9.88
2023-05-23T07:47:53.627Z,8.80
2023-05-23T07:50:42.945Z,10.48
2023-05-23T07:53:29.042Z,7.70
2023-05-23T07:56:15.813Z,10.35
2023-05-23T07:59:02.423Z,8.88
2023-05-23T08:01:50.722Z,8.35
2023-05-23T08:04:40.400Z,10.45
2023-05-23T08:07:27.080Z,5.32
2023-05-23T08:10:17.490Z,6.90
2023-05-23T08:13:06.865Z,10.55
2023-05-23T08:15:57.996Z,5.55
2023-05-23T08:18:47.939Z,12.50
2023-05-23T08:21:36.326Z,8.32
2023-05-23T08:24:22.427Z,7.20
2023-05-23T08:27:08.582Z,9.27
2023-05-23T08:29:55.954Z,8.73
2023-05-23T08:32:41.917Z,7.43
2023-05-23T08:35:29.408Z,8.68
2023-05-23T08:38:15.264Z,5.53
2023-05-23T08:41:30.701Z,4.72
2023-05-23T08:44:23.075Z,6.55
2023-05-23T08:47:17.507Z,4.32
2023-05-23T08:50:14.573Z,7.07
2023-05-23T08:53:00.615Z,5.82
2023-05-23T08:55:48.862Z,5.32
2023-05-23T08:58:35.702Z,7.97
2023-05-23T09:01:23.284Z,7.47
2023-05-23T09:04:12.398Z,6.27
2023-05-23T09:07:12.109Z,5.93
2023-05-23T09:09:58.223Z,5.25
2023-05-23T09:12:43.769Z,5.97
2023-05-23T09:15:31.961Z,6.80
2023-05-23T09:18:18.573Z,5.05
2023-05-23T09:21:05.286Z,4.97
2023-05-23T09:23:53.293Z,11.27
2023-05-23T09:26:39.745Z,10.48
2023-05-23T09:29:25.733Z,7.43
2023-05-23T09:32:16.451Z,6.10
2023-05-23T09:35:04.732Z,8.52
2023-05-23T09:37:52.597Z,7.00
2023-05-23T09:40:38.034Z,5.05
2023-05-23T09:43:24.158Z,6.05
2023-05-23T09:46:11.761Z,5.90
2023-05-23T09:49:00.223Z,6.20
2023-05-23T09:52:00.866Z,5.93
2023-05-23T09:54:47.718Z,4.32
2023-05-23T09:57:38.702Z,4.45
2023-05-23T10:00:28.563Z,4.72
2023-05-23T10:03:15.218Z,7.05
2023-05-23T10:06:07.464Z,8.60
2023-05-23T10:09:04.628Z,5.00
2023-05-23T10:11:59.787Z,5.45
2023-05-23T10:14:46.514Z,7.10
2023-05-23T10:17:41.313Z,7.07
2023-05-23T10:20:31.886Z,9.35
2023-05-23T10:23:18.993Z,5.60
2023-05-23T10:26:05.346Z,5.93
2023-05-23T10:28:51.835Z,6.18
2023-05-23T10:31:38.347Z,6.65
2023-05-23T10:34:54.615Z,6.15
2023-05-23T10:37:53.348Z,6.47
2023-05-23T10:40:52.927Z,5.55
2023-05-23T10:43:54.158Z,5.38
2023-05-23T10:47:02.270Z,4.03
2023-05-23T10:49:52.403Z,5.05
2023-05-23T10:52:42.124Z,4.25
2023-05-23T10:55:32.111Z,5.13
2023-05-23T10:58:22.886Z,7.88
2023-05-23T11:01:09.749Z,6.38
2023-05-23T11:03:56.351Z,9.85
2023-05-23T11:06:44.569Z,3.42
2023-05-23T11:09:30.779Z,5.38
2023-05-23T11:12:16.388Z,5.85
2023-05-23T11:15:02.703Z,6.28
2023-05-23T11:17:52.628Z,5.57
2023-05-23T11:20:39.194Z,5.32
2023-05-23T11:23:24.871Z,7.22
2023-05-23T11:26:30.520Z,8.07
2023-05-23T11:29:16.583Z,5.75
2023-05-23T11:32:16.013Z,4.50
2023-05-23T11:35:05.230Z,4.07
2023-05-23T11:37:51.289Z,5.88
2023-05-23T11:40:38.003Z,3.63
2023-05-23T11:43:24.267Z,5.78
2023-05-23T11:46:09.696Z,4.78
2023-05-23T11:48:55.432Z,5.88
2023-05-23T11:51:40.804Z,4.75
2023-05-23T11:54:27.468Z,7.13
2023-05-23T11:57:14.072Z,5.05
2023-05-23T12:00:00.302Z,5.75
2023-05-23T12:02:47.722Z,8.13
2023-05-23T12:05:33.506Z,7.50
2023-05-23T12:08:18.877Z,4.63
2023-05-23T12:11:04.911Z,6.65
2023-05-23T12:13:55.467Z,5.30
2023-05-23T12:16:43.932Z,6.68
2023-05-23T12:19:29.934Z,5.93
2023-05-23T12:22:23.398Z,8.90
2023-05-23T12:25:10.770Z,6.43
2023-05-23T12:27:56.798Z,6.57
2023-05-23T12:30:43.105Z,6.50
2023-05-23T12:33:29.173Z,6.03
2023-05-23T12:36:22.947Z,6.28
2023-05-23T12:39:09.487Z,5.40
2023-05-23T12:41:58.298Z,5.40
2023-05-23T12:44:46.118Z,8.88
2023-05-23T12:47:31.822Z,5.72
2023-05-23T12:50:18.136Z,7.05
2023-05-23T12:53:03.851Z,4.80
2023-05-23T12:55:49.898Z,5.60
2023-05-23T12:58:35.420Z,5.13
2023-05-23T13:01:22.228Z,8.10
2023-05-23T13:04:08.115Z,4.88
2023-05-23T13:06:54.731Z,5.32
2023-05-23T13:09:40.136Z,9.35
2023-05-23T13:12:25.950Z,8.40
2023-05-23T13:15:12.017Z,6.70
2023-05-23T13:17:58.260Z,6.10
2023-05-23T13:20:44.054Z,4.60
2023-05-23T13:23:31.006Z,5.15
2023-05-23T13:26:16.586Z,7.05
2023-05-23T13:29:02.545Z,6.32
2023-05-23T13:31:48.576Z,6.68
2023-05-23T13:34:37.546Z,7.53
2023-05-23T13:37:23.196Z,6.68
2023-05-23T13:40:13.239Z,4.85
2023-05-23T13:42:59.060Z,7.78
2023-05-23T13:45:47.328Z,8.25
2023-05-23T13:48:33.187Z,6.18
2023-05-23T13:51:19.014Z,11.55
2023-05-23T13:54:06.205Z,9.75
2023-05-23T13:56:52.321Z,7.78
2023-05-23T13:59:38.146Z,14.93
2023-05-23T14:02:24.415Z,11.30
2023-05-23T14:05:10.435Z,11.05
2023-05-23T14:07:57.016Z,11.25
2023-05-23T14:10:43.110Z,8.38
2023-05-23T14:13:29.080Z,13.32
2023-05-23T14:16:15.078Z,16.77
2023-05-23T14:19:01.681Z,8.88
2023-05-23T14:21:47.601Z,12.25
2023-05-23T14:24:34.267Z,11.32
2023-05-23T14:27:19.920Z,8.75
2023-05-23T14:30:06.880Z,9.40
2023-05-23T14:32:52.832Z,10.30
2023-05-23T14:35:40.099Z,9.85
2023-05-23T14:38:27.199Z,11.43
2023-05-23T14:41:13.992Z,10.10
2023-05-23T14:43:59.353Z,13.40
2023-05-23T14:46:49.105Z,11.48
2023-05-23T14:49:42.383Z,13.23
2023-05-23T14:52:28.755Z,9.13
2023-05-23T14:55:14.167Z,12.45
2023-05-23T14:58:00.594Z,12.82
2023-05-23T15:00:48.160Z,8.57
2023-05-23T15:03:34.232Z,13.27
2023-05-23T15:06:20.252Z,11.80
2023-05-23T15:09:07.582Z,14.25
2023-05-23T15:11:54.278Z,9.70
2023-05-23T15:14:40.564Z,10.02
2023-05-23T15:17:26.894Z,13.57
2023-05-23T15:20:13.270Z,14.25
2023-05-23T15:22:58.582Z,14.13
2023-05-23T15:25:49.378Z,9.50
2023-05-23T15:28:35.765Z,11.60
2023-05-23T15:31:21.494Z,15.48
2023-05-23T15:34:07.022Z,10.13
2023-05-23T15:36:53.193Z,10.32
2023-05-23T15:39:38.748Z,10.27
2023-05-23T15:42:24.745Z,12.15
2023-05-23T15:45:11.568Z,10.80
2023-05-23T15:47:57.807Z,13.05
2023-05-23T15:50:44.225Z,12.70
2023-05-23T15:53:34.418Z,10.70
2023-05-23T15:56:23.108Z,13.73
2023-05-23T15:59:09.475Z,12.13
2023-05-23T16:01:56.230Z,10.77
2023-05-23T16:04:42.474Z,10.93
2023-05-23T16:07:28.071Z,11.13
2023-05-23T16:10:14.411Z,12.40
2023-05-23T16:13:00.058Z,15.20
2023-05-23T16:15:46.148Z,12.82
2023-05-23T16:18:31.701Z,11.98
2023-05-23T16:21:20.677Z,11.23
2023-05-23T16:24:06.707Z,15.50
2023-05-23T16:26:53.045Z,15.32
2023-05-23T16:29:38.694Z,18.05
2023-05-23T16:32:24.857Z,15.40
2023-05-23T16:35:13.797Z,14.35
2023-05-23T16:37:59.924Z,15.38
2023-05-23T16:40:45.542Z,14.02
2023-05-23T16:43:31.150Z,13.98
2023-05-23T16:46:19.035Z,12.02
2023-05-23T16:49:13.477Z,11.93
2023-05-23T16:51:59.255Z,13.40
2023-05-23T16:54:45.676Z,12.18
2023-05-23T16:57:31.493Z,15.00
2023-05-23T17:00:17.396Z,11.73
2023-05-23T17:03:02.912Z,14.43
2023-05-23T17:05:49.026Z,14.88
2023-05-23T17:08:34.623Z,12.02
2023-05-23T17:11:20.710Z,11.82
2023-05-23T17:14:06.091Z,13.93
2023-05-23T17:16:51.900Z,12.75
2023-05-23T17:19:42.517Z,10.48
2023-05-23T17:23:03.653Z,12.52
2023-05-23T17:25:49.549Z,12.50
2023-05-23T17:28:35.885Z,9.25
2023-05-23T17:31:21.562Z,9.90
2023-05-23T17:34:07.563Z,12.63
2023-05-23T17:36:52.960Z,15.38
2023-05-23T17:39:39.052Z,11.95
2023-05-23T17:42:25.094Z,14.30
2023-05-23T17:45:11.764Z,15.23
2023-05-23T17:48:15.254Z,14.60
2023-05-23T17:51:01.108Z,15.00
2023-05-23T17:53:47.064Z,14.45
2023-05-23T17:56:33.064Z,14.25
2023-05-23T17:59:18.547Z,12.98
2023-05-23T18:02:04.892Z,11.63
2023-05-23T18:04:50.787Z,11.02
2023-05-23T18:07:37.482Z,12.50
2023-05-23T18:10:24.689Z,13.00
2023-05-23T18:13:10.896Z,22.92
2023-05-23T18:15:56.290Z,22.20
2023-05-23T18:18:42.461Z,20.42
2023-05-23T18:21:28.846Z,14.82
2023-05-23T18:24:14.671Z,12.50
2023-05-23T18:27:00.812Z,18.63
2023-05-23T18:29:45.361Z,13.55
2023-05-23T18:32:31.508Z,14.60
2023-05-23T18:35:17.716Z,13.45
2023-05-23T18:38:03.248Z,12.77
2023-05-23T18:40:50.707Z,14.75
2023-05-23T18:43:36.692Z,11.93
2023-05-23T18:46:24.181Z,13.50
2023-05-23T18:49:09.748Z,10.82
2023-05-23T18:51:55.999Z,10.93
2023-05-23T18:54:42.411Z,19.77
2023-05-23T18:57:29.133Z,11.18
2023-05-23T19:00:14.911Z,11.65
2023-05-23T19:03:01.196Z,15.43
2023-05-23T19:05:47.237Z,12.88
2023-05-23T19:08:33.516Z,16.20
2023-05-23T19:11:19.010Z,10.35
2023-05-23T19:14:04.930Z,13.45
2023-05-23T19:16:51.516Z,13.25
2023-05-23T19:19:38.308Z,14.23
2023-05-23T19:22:24.305Z,16.33
2023-05-23T19:25:10.402Z,15.88
2023-05-23T19:27:55.998Z,15.88
2023-05-23T19:30:44.023Z,15.82
2023-05-23T19:33:29.589Z,13.93
2023-05-23T19:36:15.346Z,15.00
2023-05-23T19:39:01.595Z,14.18
2023-05-23T19:41:47.575Z,13.63
2023-05-23T19:44:32.836Z,14.90
2023-05-23T19:47:18.814Z,15.30
2023-05-23T19:50:07.263Z,14.73
2023-05-23T19:52:53.279Z,13.20
2023-05-23T19:55:40.609Z,11.43
2023-05-23T19:58:27.041Z,15.43
2023-05-23T20:01:12.582Z,17.10
2023-05-23T20:03:59.042Z,15.25
2023-05-23T20:06:44.942Z,13.23
2023-05-23T20:09:31.037Z,17.23
2023-05-23T20:12:16.964Z,18.55
2023-05-23T20:15:03.534Z,19.77
2023-05-23T20:17:48.991Z,19.10
2023-05-23T20:20:35.309Z,17.08
2023-05-23T20:23:20.907Z,14.77
2023-05-23T20:26:09.524Z,14.63
2023-05-23T20:28:55.941Z,15.02
2023-05-23T20:31:42.407Z,15.00
2023-05-23T20:34:28.397Z,14.60
2023-05-23T20:37:14.891Z,16.00
2023-05-23T20:40:00.663Z,13.43
2023-05-23T20:42:49.795Z,12.70
2023-05-23T20:45:35.484Z,15.20
2023-05-23T20:48:21.441Z,13.65
2023-05-23T20:51:08.135Z,14.30
2023-05-23T20:53:53.939Z,15.30
2023-05-23T20:56:39.337Z,15.85
2023-05-23T20:59:26.206Z,15.20
2023-05-23T21:02:13.227Z,18.05
2023-05-23T21:04:59.078Z,23.70
2023-05-23T21:07:44.731Z,17.48
2023-05-23T21:10:30.436Z,22.33
2023-05-23T21:13:15.846Z,17.08
2023-05-23T21:16:01.871Z,17.88
2023-05-23T21:18:47.353Z,13.82
2023-05-23T21:21:33.852Z,16.42
2023-05-23T21:24:19.612Z,15.43
2023-05-23T21:27:05.721Z,14.65
2023-05-23T21:29:51.748Z,14.32
2023-05-23T21:32:38.440Z,13.90
2023-05-23T21:35:24.389Z,16.77
2023-05-23T21:38:10.875Z,15.45
2023-05-23T21:40:56.647Z,15.77
2023-05-23T21:43:43.172Z,16.25
2023-05-23T21:46:28.855Z,14.38
2023-05-23T21:49:14.666Z,14.15
2023-05-23T21:52:03.791Z,14.75
2023-05-23T21:54:49.878Z,16.30
2023-05-23T21:57:35.566Z,13.82
2023-05-23T22:00:22.754Z,17.25
2023-05-23T22:03:08.428Z,15.35
2023-05-23T22:05:54.356Z,15.57
2023-05-23T22:08:39.828Z,19.83
2023-05-23T22:11:29.643Z,16.58
2023-05-23T22:14:15.626Z,16.67
2023-05-23T22:17:02.404Z,16.45
2023-05-23T22:19:48.606Z,12.27
2023-05-23T22:22:34.159Z,15.18
2023-05-23T22:25:19.777Z,16.27
2023-05-23T22:28:05.650Z,14.88
2023-05-23T22:30:51.118Z,15.85
2023-05-23T22:33:37.708Z,14.45
2023-05-23T22:36:23.431Z,15.52
2023-05-23T22:39:09.657Z,15.07
2023-05-23T22:41:55.184Z,12.45
2023-05-23T22:44:41.040Z,13.30
2023-05-23T22:47:29.381Z,14.68
2023-05-23T22:50:15.653Z,14.85
2023-05-23T22:53:01.089Z,14.60
2023-05-23T22:55:47.112Z,15.27
2023-05-23T22:58:32.520Z,13.68
2023-05-23T23:01:18.667Z,14.88
2023-05-23T23:04:04.220Z,12.93
2023-05-23T23:06:53.697Z,15.05
2023-05-23T23:09:39.741Z,13.18
2023-05-23T23:12:26.008Z,14.68
2023-05-23T23:15:11.827Z,14.32
2023-05-23T23:17:57.898Z,18.98
2023-05-23T23:20:44.298Z,14.63
2023-05-23T23:23:30.937Z,13.57
2023-05-23T23:26:16.671Z,13.63
2023-05-23T23:29:03.420Z,13.65
2023-05-23T23:31:49.456Z,16.88
2023-05-23T23:34:35.872Z,17.95
2023-05-23T23:37:21.324Z,15.65
2023-05-23T23:40:08.723Z,15.18
2023-05-23T23:42:54.357Z,14.05
2023-05-23T23:45:40.400Z,12.98
2023-05-23T23:48:26.354Z,13.63
2023-05-23T23:51:12.963Z,14.70
2023-05-23T23:53:58.999Z,16.67
2023-05-23T23:56:45.517Z,16.88
2023-05-23T23:59:31.388Z,17.55
